Aviation Digital Data Service (ADDS)

Output produced by METARs form (1018 UTC 07 December 2022)
found at http://www.aviationweather.gov/metar/data/
 
METAR text: KLMO 070955Z AUTO 36005KT 10SM CLR 00/M08 A3010 RMK AO2 T10041080
Conditions at: KLMO (LONGMONT/VBRAND , CO, US) observed 0955 UTC 07 December 2022
Temperature: -0.4°C (31°F)
Dewpoint: -8.0°C (18°F) [RH = 56%]
Pressure (altimeter): 30.10 inches Hg (1019.4 mb)
Winds: from the N (360 degrees) at 6 MPH (5 knots; 2.6 m/s)
Visibility: 10 or more miles (16+ km)
Ceiling: at least 12,000 feet AGL
Clouds: sky clear below 12,000 feet AGL
Weather: automated observation with no human augmentation;
there may or may not be significant weather present at this time

METAR text: KLMO 070935Z AUTO 00000KT 10SM CLR M01/M08 A3010 RMK AO2 T10091081
Conditions at: KLMO (LONGMONT/VBRAND , CO, US) observed 0935 UTC 07 December 2022
Temperature: -0.9°C (30°F)
Dewpoint: -8.1°C (17°F) [RH = 58%]
Pressure (altimeter): 30.10 inches Hg (1019.4 mb)
Winds: calm
Visibility: 10 or more miles (16+ km)
Ceiling: at least 12,000 feet AGL
Clouds: sky clear below 12,000 feet AGL
Weather: automated observation with no human augmentation;
there may or may not be significant weather present at this time